sensor_id;sensor_type;location;lat;lon;timestamp;P1;durP1;ratioP1;P2;durP2;ratioP2
80936;SDS011;70395;51.382;7.074;2024-03-17T00:02:13;7.83;;;4.97;;
80936;SDS011;70395;51.382;7.074;2024-03-17T00:04:39;6.60;;;3.47;;
80936;SDS011;70395;51.382;7.074;2024-03-17T00:07:04;5.10;;;3.30;;
80936;SDS011;70395;51.382;7.074;2024-03-17T00:09:30;8.20;;;4.50;;
80936;SDS011;70395;51.382;7.074;2024-03-17T00:11:56;6.70;;;3.60;;
80936;SDS011;70395;51.382;7.074;2024-03-17T00:14:22;7.93;;;4.27;;
80936;SDS011;70395;51.382;7.074;2024-03-17T00:16:48;7.23;;;4.20;;
80936;SDS011;70395;51.382;7.074;2024-03-17T00:19:14;7.80;;;4.57;;
80936;SDS011;70395;51.382;7.074;2024-03-17T00:21:42;5.65;;;3.80;;
80936;SDS011;70395;51.382;7.074;2024-03-17T00:24:09;7.32;;;4.20;;
80936;SDS011;70395;51.382;7.074;2024-03-17T00:26:35;5.60;;;3.92;;
80936;SDS011;70395;51.382;7.074;2024-03-17T00:29:01;5.30;;;4.40;;
80936;SDS011;70395;51.382;7.074;2024-03-17T00:31:28;6.15;;;4.15;;
80936;SDS011;70395;51.382;7.074;2024-03-17T00:33:54;5.80;;;4.10;;
80936;SDS011;70395;51.382;7.074;2024-03-17T00:36:19;6.37;;;4.13;;
80936;SDS011;70395;51.382;7.074;2024-03-17T00:38:45;5.60;;;4.00;;
80936;SDS011;70395;51.382;7.074;2024-03-17T00:41:11;5.60;;;4.40;;
80936;SDS011;70395;51.382;7.074;2024-03-17T00:43:37;8.87;;;3.97;;
80936;SDS011;70395;51.382;7.074;2024-03-17T00:46:03;9.30;;;4.37;;
80936;SDS011;70395;51.382;7.074;2024-03-17T00:48:29;7.13;;;4.20;;
80936;SDS011;70395;51.382;7.074;2024-03-17T00:50:55;5.57;;;5.03;;
80936;SDS011;70395;51.382;7.074;2024-03-17T00:53:22;7.45;;;4.40;;
80936;SDS011;70395;51.382;7.074;2024-03-17T00:55:51;8.43;;;5.07;;
80936;SDS011;70395;51.382;7.074;2024-03-17T00:58:19;6.03;;;4.07;;
80936;SDS011;70395;51.382;7.074;2024-03-17T01:00:48;10.63;;;4.60;;
80936;SDS011;70395;51.382;7.074;2024-03-17T01:03:14;11.32;;;4.78;;
80936;SDS011;70395;51.382;7.074;2024-03-17T01:05:44;10.95;;;4.80;;
80936;SDS011;70395;51.382;7.074;2024-03-17T01:08:12;6.53;;;4.40;;
80936;SDS011;70395;51.382;7.074;2024-03-17T01:10:42;5.75;;;4.35;;
80936;SDS011;70395;51.382;7.074;2024-03-17T01:13:09;7.50;;;4.85;;
80936;SDS011;70395;51.382;7.074;2024-03-17T01:15:36;6.40;;;4.90;;
80936;SDS011;70395;51.382;7.074;2024-03-17T01:18:03;7.93;;;5.32;;
80936;SDS011;70395;51.382;7.074;2024-03-17T01:20:30;5.13;;;4.38;;
80936;SDS011;70395;51.382;7.074;2024-03-17T01:22:58;4.28;;;3.80;;
80936;SDS011;70395;51.382;7.074;2024-03-17T01:25:24;7.10;;;4.40;;
80936;SDS011;70395;51.382;7.074;2024-03-17T01:27:54;7.20;;;4.22;;
80936;SDS011;70395;51.382;7.074;2024-03-17T01:30:21;7.93;;;4.35;;
80936;SDS011;70395;51.382;7.074;2024-03-17T01:32:47;5.90;;;4.38;;
80936;SDS011;70395;51.382;7.074;2024-03-17T01:35:14;7.93;;;5.05;;
80936;SDS011;70395;51.382;7.074;2024-03-17T01:37:40;6.90;;;4.00;;
80936;SDS011;70395;51.382;7.074;2024-03-17T01:40:07;5.35;;;3.80;;
80936;SDS011;70395;51.382;7.074;2024-03-17T01:42:40;5.97;;;4.10;;
80936;SDS011;70395;51.382;7.074;2024-03-17T01:47:58;6.78;;;4.20;;
80936;SDS011;70395;51.382;7.074;2024-03-17T01:50:35;10.77;;;4.40;;
80936;SDS011;70395;51.382;7.074;2024-03-17T01:53:03;6.03;;;4.25;;
80936;SDS011;70395;51.382;7.074;2024-03-17T01:55:35;8.00;;;5.10;;
80936;SDS011;70395;51.382;7.074;2024-03-17T01:58:04;7.38;;;4.47;;
80936;SDS011;70395;51.382;7.074;2024-03-17T02:00:35;5.45;;;4.35;;
80936;SDS011;70395;51.382;7.074;2024-03-17T02:03:05;7.20;;;6.50;;
80936;SDS011;70395;51.382;7.074;2024-03-17T02:05:33;6.75;;;4.18;;
80936;SDS011;70395;51.382;7.074;2024-03-17T02:08:02;6.80;;;4.65;;
80936;SDS011;70395;51.382;7.074;2024-03-17T02:10:32;7.20;;;5.30;;
80936;SDS011;70395;51.382;7.074;2024-03-17T02:12:59;6.55;;;4.75;;
80936;SDS011;70395;51.382;7.074;2024-03-17T02:15:28;5.80;;;4.32;;
80936;SDS011;70395;51.382;7.074;2024-03-17T02:17:55;8.50;;;4.55;;
80936;SDS011;70395;51.382;7.074;2024-03-17T02:20:20;6.27;;;4.50;;
80936;SDS011;70395;51.382;7.074;2024-03-17T02:23:06;7.50;;;5.22;;
80936;SDS011;70395;51.382;7.074;2024-03-17T02:25:32;8.07;;;5.53;;
80936;SDS011;70395;51.382;7.074;2024-03-17T02:27:58;6.63;;;5.00;;
80936;SDS011;70395;51.382;7.074;2024-03-17T02:30:24;5.87;;;4.63;;
80936;SDS011;70395;51.382;7.074;2024-03-17T02:32:56;7.60;;;5.00;;
80936;SDS011;70395;51.382;7.074;2024-03-17T02:35:23;6.18;;;5.00;;
80936;SDS011;70395;51.382;7.074;2024-03-17T02:37:49;7.38;;;5.45;;
80936;SDS011;70395;51.382;7.074;2024-03-17T02:40:15;9.45;;;5.78;;
80936;SDS011;70395;51.382;7.074;2024-03-17T02:42:42;11.95;;;6.60;;
80936;SDS011;70395;51.382;7.074;2024-03-17T02:45:10;8.90;;;6.30;;
80936;SDS011;70395;51.382;7.074;2024-03-17T02:47:39;10.43;;;6.75;;
80936;SDS011;70395;51.382;7.074;2024-03-17T02:50:06;9.02;;;5.80;;
80936;SDS011;70395;51.382;7.074;2024-03-17T02:52:34;9.50;;;6.47;;
80936;SDS011;70395;51.382;7.074;2024-03-17T02:55:00;10.37;;;5.90;;
80936;SDS011;70395;51.382;7.074;2024-03-17T02:57:26;9.23;;;5.27;;
80936;SDS011;70395;51.382;7.074;2024-03-17T02:59:56;8.55;;;5.25;;
80936;SDS011;70395;51.382;7.074;2024-03-17T03:02:21;7.13;;;5.73;;
80936;SDS011;70395;51.382;7.074;2024-03-17T03:04:48;7.70;;;5.22;;
80936;SDS011;70395;51.382;7.074;2024-03-17T03:07:14;8.77;;;5.73;;
80936;SDS011;70395;51.382;7.074;2024-03-17T03:09:39;8.07;;;5.67;;
80936;SDS011;70395;51.382;7.074;2024-03-17T03:12:05;8.17;;;5.20;;
80936;SDS011;70395;51.382;7.074;2024-03-17T03:14:32;9.77;;;5.82;;
80936;SDS011;70395;51.382;7.074;2024-03-17T03:16:59;7.97;;;5.35;;
80936;SDS011;70395;51.382;7.074;2024-03-17T03:19:27;10.40;;;5.45;;
80936;SDS011;70395;51.382;7.074;2024-03-17T03:21:55;8.15;;;5.63;;
80936;SDS011;70395;51.382;7.074;2024-03-17T03:24:21;8.38;;;5.80;;
80936;SDS011;70395;51.382;7.074;2024-03-17T03:26:47;7.57;;;5.50;;
80936;SDS011;70395;51.382;7.074;2024-03-17T03:29:13;12.03;;;5.17;;
80936;SDS011;70395;51.382;7.074;2024-03-17T03:31:39;12.00;;;6.03;;
80936;SDS011;70395;51.382;7.074;2024-03-17T03:34:06;15.50;;;6.63;;
80936;SDS011;70395;51.382;7.074;2024-03-17T03:36:33;12.00;;;5.70;;
80936;SDS011;70395;51.382;7.074;2024-03-17T03:39:03;7.50;;;5.70;;
80936;SDS011;70395;51.382;7.074;2024-03-17T03:41:36;9.65;;;5.63;;
80936;SDS011;70395;51.382;7.074;2024-03-17T03:44:02;8.23;;;5.07;;
80936;SDS011;70395;51.382;7.074;2024-03-17T03:46:28;7.82;;;5.30;;
80936;SDS011;70395;51.382;7.074;2024-03-17T03:48:54;12.00;;;5.53;;
80936;SDS011;70395;51.382;7.074;2024-03-17T03:51:19;11.27;;;6.17;;
80936;SDS011;70395;51.382;7.074;2024-03-17T03:53:50;8.18;;;5.68;;
80936;SDS011;70395;51.382;7.074;2024-03-17T03:56:16;7.30;;;5.78;;
80936;SDS011;70395;51.382;7.074;2024-03-17T03:58:42;9.60;;;5.50;;
80936;SDS011;70395;51.382;7.074;2024-03-17T04:01:09;8.13;;;5.30;;
80936;SDS011;70395;51.382;7.074;2024-03-17T04:03:40;9.57;;;5.70;;
80936;SDS011;70395;51.382;7.074;2024-03-17T04:06:07;8.93;;;6.03;;
80936;SDS011;70395;51.382;7.074;2024-03-17T04:08:35;12.13;;;5.95;;
80936;SDS011;70395;51.382;7.074;2024-03-17T04:11:06;9.45;;;6.20;;
80936;SDS011;70395;51.382;7.074;2024-03-17T04:13:32;10.70;;;7.20;;
80936;SDS011;70395;51.382;7.074;2024-03-17T04:15:59;9.55;;;6.45;;
80936;SDS011;70395;51.382;7.074;2024-03-17T04:18:30;10.27;;;6.88;;
80936;SDS011;70395;51.382;7.074;2024-03-17T04:21:00;9.10;;;7.00;;
80936;SDS011;70395;51.382;7.074;2024-03-17T04:23:29;9.20;;;6.13;;
80936;SDS011;70395;51.382;7.074;2024-03-17T04:25:57;8.75;;;6.20;;
80936;SDS011;70395;51.382;7.074;2024-03-17T04:28:24;14.48;;;7.53;;
80936;SDS011;70395;51.382;7.074;2024-03-17T04:30:50;17.53;;;9.03;;
80936;SDS011;70395;51.382;7.074;2024-03-17T04:33:16;10.80;;;7.17;;
80936;SDS011;70395;51.382;7.074;2024-03-17T04:35:42;17.83;;;10.33;;
80936;SDS011;70395;51.382;7.074;2024-03-17T04:38:08;8.55;;;5.85;;
80936;SDS011;70395;51.382;7.074;2024-03-17T04:40:39;13.02;;;7.18;;
80936;SDS011;70395;51.382;7.074;2024-03-17T04:43:08;10.10;;;7.78;;
80936;SDS011;70395;51.382;7.074;2024-03-17T04:45:34;9.87;;;7.17;;
80936;SDS011;70395;51.382;7.074;2024-03-17T04:48:00;10.70;;;7.47;;
80936;SDS011;70395;51.382;7.074;2024-03-17T04:50:26;10.73;;;7.10;;
80936;SDS011;70395;51.382;7.074;2024-03-17T04:52:56;10.45;;;7.38;;
80936;SDS011;70395;51.382;7.074;2024-03-17T04:55:26;10.38;;;6.18;;
80936;SDS011;70395;51.382;7.074;2024-03-17T04:57:52;11.30;;;7.45;;
80936;SDS011;70395;51.382;7.074;2024-03-17T05:00:18;12.17;;;7.77;;
80936;SDS011;70395;51.382;7.074;2024-03-17T05:02:44;16.73;;;8.50;;
80936;SDS011;70395;51.382;7.074;2024-03-17T05:05:10;12.65;;;8.25;;
80936;SDS011;70395;51.382;7.074;2024-03-17T05:07:36;11.70;;;8.17;;
80936;SDS011;70395;51.382;7.074;2024-03-17T05:10:03;11.85;;;8.48;;
80936;SDS011;70395;51.382;7.074;2024-03-17T05:12:30;14.77;;;8.70;;
80936;SDS011;70395;51.382;7.074;2024-03-17T05:14:57;12.73;;;9.07;;
80936;SDS011;70395;51.382;7.074;2024-03-17T05:17:22;14.47;;;9.73;;
80936;SDS011;70395;51.382;7.074;2024-03-17T05:19:48;13.30;;;9.10;;
80936;SDS011;70395;51.382;7.074;2024-03-17T05:22:14;13.60;;;7.40;;
80936;SDS011;70395;51.382;7.074;2024-03-17T05:24:40;11.53;;;7.90;;
80936;SDS011;70395;51.382;7.074;2024-03-17T05:27:05;12.60;;;8.40;;
80936;SDS011;70395;51.382;7.074;2024-03-17T05:29:31;9.67;;;7.70;;
80936;SDS011;70395;51.382;7.074;2024-03-17T05:31:58;20.70;;;8.20;;
80936;SDS011;70395;51.382;7.074;2024-03-17T05:34:24;13.90;;;8.10;;
80936;SDS011;70395;51.382;7.074;2024-03-17T05:36:50;12.03;;;8.73;;
80936;SDS011;70395;51.382;7.074;2024-03-17T05:39:16;13.40;;;7.28;;
80936;SDS011;70395;51.382;7.074;2024-03-17T05:41:42;8.85;;;7.55;;
80936;SDS011;70395;51.382;7.074;2024-03-17T05:44:09;14.05;;;9.50;;
80936;SDS011;70395;51.382;7.074;2024-03-17T05:46:35;13.25;;;9.02;;
80936;SDS011;70395;51.382;7.074;2024-03-17T05:49:01;14.87;;;8.67;;
80936;SDS011;70395;51.382;7.074;2024-03-17T05:51:28;12.05;;;9.18;;
80936;SDS011;70395;51.382;7.074;2024-03-17T05:53:54;12.57;;;8.90;;
80936;SDS011;70395;51.382;7.074;2024-03-17T05:56:21;15.10;;;8.90;;
80936;SDS011;70395;51.382;7.074;2024-03-17T05:58:47;13.90;;;9.30;;
80936;SDS011;70395;51.382;7.074;2024-03-17T06:01:14;15.18;;;8.85;;
80936;SDS011;70395;51.382;7.074;2024-03-17T06:03:40;13.37;;;8.60;;
80936;SDS011;70395;51.382;7.074;2024-03-17T06:06:07;11.70;;;7.50;;
80936;SDS011;70395;51.382;7.074;2024-03-17T06:08:37;12.35;;;8.27;;
80936;SDS011;70395;51.382;7.074;2024-03-17T06:11:04;9.68;;;7.10;;
80936;SDS011;70395;51.382;7.074;2024-03-17T06:13:30;11.95;;;8.13;;
80936;SDS011;70395;51.382;7.074;2024-03-17T06:15:56;10.15;;;7.60;;
80936;SDS011;70395;51.382;7.074;2024-03-17T06:18:26;15.57;;;8.70;;
80936;SDS011;70395;51.382;7.074;2024-03-17T06:20:52;12.75;;;8.38;;
80936;SDS011;70395;51.382;7.074;2024-03-17T06:23:18;11.57;;;7.80;;
80936;SDS011;70395;51.382;7.074;2024-03-17T06:25:45;10.00;;;6.88;;
80936;SDS011;70395;51.382;7.074;2024-03-17T06:28:14;8.60;;;6.90;;
80936;SDS011;70395;51.382;7.074;2024-03-17T06:30:45;10.98;;;7.70;;
80936;SDS011;70395;51.382;7.074;2024-03-17T06:33:19;9.15;;;6.05;;
80936;SDS011;70395;51.382;7.074;2024-03-17T06:35:45;11.98;;;6.70;;
80936;SDS011;70395;51.382;7.074;2024-03-17T06:38:12;8.30;;;6.25;;
80936;SDS011;70395;51.382;7.074;2024-03-17T06:40:40;9.52;;;5.90;;
80936;SDS011;70395;51.382;7.074;2024-03-17T06:43:06;8.82;;;6.88;;
80936;SDS011;70395;51.382;7.074;2024-03-17T06:45:33;9.13;;;5.10;;
80936;SDS011;70395;51.382;7.074;2024-03-17T06:47:59;10.02;;;6.38;;
80936;SDS011;70395;51.382;7.074;2024-03-17T06:50:25;6.57;;;5.40;;
80936;SDS011;70395;51.382;7.074;2024-03-17T06:52:51;6.43;;;5.17;;
80936;SDS011;70395;51.382;7.074;2024-03-17T06:55:17;6.37;;;5.53;;
80936;SDS011;70395;51.382;7.074;2024-03-17T06:57:46;6.70;;;5.70;;
80936;SDS011;70395;51.382;7.074;2024-03-17T07:00:13;6.77;;;5.50;;
80936;SDS011;70395;51.382;7.074;2024-03-17T07:02:41;8.77;;;6.27;;
80936;SDS011;70395;51.382;7.074;2024-03-17T07:05:11;8.53;;;5.00;;
80936;SDS011;70395;51.382;7.074;2024-03-17T07:07:43;6.33;;;5.73;;
80936;SDS011;70395;51.382;7.074;2024-03-17T07:10:10;5.60;;;4.50;;
80936;SDS011;70395;51.382;7.074;2024-03-17T07:12:37;5.23;;;4.67;;
80936;SDS011;70395;51.382;7.074;2024-03-17T07:15:07;6.10;;;4.20;;
80936;SDS011;70395;51.382;7.074;2024-03-17T07:17:34;5.20;;;4.03;;
80936;SDS011;70395;51.382;7.074;2024-03-17T07:20:00;4.83;;;4.03;;
80936;SDS011;70395;51.382;7.074;2024-03-17T07:22:26;5.30;;;4.50;;
80936;SDS011;70395;51.382;7.074;2024-03-17T07:24:53;8.93;;;4.63;;
80936;SDS011;70395;51.382;7.074;2024-03-17T07:27:26;6.20;;;4.30;;
80936;SDS011;70395;51.382;7.074;2024-03-17T07:29:53;5.03;;;4.53;;
80936;SDS011;70395;51.382;7.074;2024-03-17T07:32:19;5.90;;;4.03;;
80936;SDS011;70395;51.382;7.074;2024-03-17T07:34:45;4.60;;;3.90;;
80936;SDS011;70395;51.382;7.074;2024-03-17T07:37:10;6.00;;;3.97;;
80936;SDS011;70395;51.382;7.074;2024-03-17T07:39:36;8.60;;;3.67;;
80936;SDS011;70395;51.382;7.074;2024-03-17T07:42:02;6.40;;;4.10;;
80936;SDS011;70395;51.382;7.074;2024-03-17T07:44:28;4.40;;;3.93;;
80936;SDS011;70395;51.382;7.074;2024-03-17T07:46:58;6.40;;;3.90;;
80936;SDS011;70395;51.382;7.074;2024-03-17T07:49:25;5.23;;;4.10;;
80936;SDS011;70395;51.382;7.074;2024-03-17T07:51:51;4.90;;;3.97;;
80936;SDS011;70395;51.382;7.074;2024-03-17T07:54:17;4.17;;;3.60;;
80936;SDS011;70395;51.382;7.074;2024-03-17T07:56:44;4.00;;;3.60;;
80936;SDS011;70395;51.382;7.074;2024-03-17T07:59:11;4.60;;;4.00;;
80936;SDS011;70395;51.382;7.074;2024-03-17T08:01:41;4.90;;;3.50;;
80936;SDS011;70395;51.382;7.074;2024-03-17T08:04:07;5.17;;;3.30;;
80936;SDS011;70395;51.382;7.074;2024-03-17T08:06:33;5.30;;;3.40;;
80936;SDS011;70395;51.382;7.074;2024-03-17T08:08:59;3.40;;;2.90;;
80936;SDS011;70395;51.382;7.074;2024-03-17T08:11:25;3.53;;;3.23;;
80936;SDS011;70395;51.382;7.074;2024-03-17T08:13:51;3.00;;;2.70;;
80936;SDS011;70395;51.382;7.074;2024-03-17T08:16:18;6.17;;;2.50;;
80936;SDS011;70395;51.382;7.074;2024-03-17T08:18:43;2.87;;;2.60;;
80936;SDS011;70395;51.382;7.074;2024-03-17T08:21:09;4.80;;;3.00;;
80936;SDS011;70395;51.382;7.074;2024-03-17T08:23:35;4.33;;;2.60;;
80936;SDS011;70395;51.382;7.074;2024-03-17T08:26:06;2.93;;;2.47;;
80936;SDS011;70395;51.382;7.074;2024-03-17T08:28:33;3.47;;;2.67;;
80936;SDS011;70395;51.382;7.074;2024-03-17T08:31:00;4.00;;;2.67;;
80936;SDS011;70395;51.382;7.074;2024-03-17T08:33:27;3.37;;;3.07;;
80936;SDS011;70395;51.382;7.074;2024-03-17T08:36:01;4.23;;;2.73;;
80936;SDS011;70395;51.382;7.074;2024-03-17T08:38:29;5.23;;;2.83;;
80936;SDS011;70395;51.382;7.074;2024-03-17T08:40:56;3.33;;;2.70;;
80936;SDS011;70395;51.382;7.074;2024-03-17T08:43:31;3.73;;;2.90;;
80936;SDS011;70395;51.382;7.074;2024-03-17T08:45:58;2.83;;;2.40;;
80936;SDS011;70395;51.382;7.074;2024-03-17T08:48:26;4.10;;;2.73;;
80936;SDS011;70395;51.382;7.074;2024-03-17T08:50:54;3.60;;;2.87;;
80936;SDS011;70395;51.382;7.074;2024-03-17T08:53:21;3.80;;;3.40;;
80936;SDS011;70395;51.382;7.074;2024-03-17T08:55:48;3.97;;;3.07;;
80936;SDS011;70395;51.382;7.074;2024-03-17T08:58:14;4.00;;;3.30;;
80936;SDS011;70395;51.382;7.074;2024-03-17T09:00:41;4.20;;;3.13;;
80936;SDS011;70395;51.382;7.074;2024-03-17T09:03:07;3.90;;;3.00;;
80936;SDS011;70395;51.382;7.074;2024-03-17T09:05:37;4.00;;;3.60;;
80936;SDS011;70395;51.382;7.074;2024-03-17T09:08:05;4.50;;;3.13;;
80936;SDS011;70395;51.382;7.074;2024-03-17T09:10:38;3.27;;;2.90;;
80936;SDS011;70395;51.382;7.074;2024-03-17T09:13:05;3.97;;;3.10;;
80936;SDS011;70395;51.382;7.074;2024-03-17T09:15:32;5.10;;;3.63;;
80936;SDS011;70395;51.382;7.074;2024-03-17T09:17:57;3.90;;;3.13;;
80936;SDS011;70395;51.382;7.074;2024-03-17T09:20:23;3.87;;;2.97;;
80936;SDS011;70395;51.382;7.074;2024-03-17T09:22:49;5.03;;;3.50;;
80936;SDS011;70395;51.382;7.074;2024-03-17T09:25:15;5.40;;;3.30;;
80936;SDS011;70395;51.382;7.074;2024-03-17T09:27:41;3.80;;;3.07;;
80936;SDS011;70395;51.382;7.074;2024-03-17T09:30:07;5.90;;;3.93;;
80936;SDS011;70395;51.382;7.074;2024-03-17T09:32:37;7.47;;;3.57;;
80936;SDS011;70395;51.382;7.074;2024-03-17T09:35:04;4.70;;;3.40;;
80936;SDS011;70395;51.382;7.074;2024-03-17T09:37:31;6.10;;;3.90;;
80936;SDS011;70395;51.382;7.074;2024-03-17T09:40:00;6.73;;;3.60;;
80936;SDS011;70395;51.382;7.074;2024-03-17T09:42:26;5.20;;;4.40;;
80936;SDS011;70395;51.382;7.074;2024-03-17T09:44:53;5.17;;;3.93;;
80936;SDS011;70395;51.382;7.074;2024-03-17T09:47:22;4.57;;;3.50;;
80936;SDS011;70395;51.382;7.074;2024-03-17T09:49:51;5.10;;;4.10;;
80936;SDS011;70395;51.382;7.074;2024-03-17T09:52:21;6.73;;;3.73;;
80936;SDS011;70395;51.382;7.074;2024-03-17T09:55:15;4.00;;;3.60;;
80936;SDS011;70395;51.382;7.074;2024-03-17T09:57:42;4.23;;;3.33;;
80936;SDS011;70395;51.382;7.074;2024-03-17T10:00:10;4.70;;;3.27;;
80936;SDS011;70395;51.382;7.074;2024-03-17T10:02:45;4.50;;;3.37;;
80936;SDS011;70395;51.382;7.074;2024-03-17T10:05:25;4.40;;;3.60;;
80936;SDS011;70395;51.382;7.074;2024-03-17T10:07:51;5.07;;;3.37;;
80936;SDS011;70395;51.382;7.074;2024-03-17T10:10:17;4.50;;;3.83;;
80936;SDS011;70395;51.382;7.074;2024-03-17T10:12:49;3.77;;;3.47;;
80936;SDS011;70395;51.382;7.074;2024-03-17T10:15:16;6.13;;;4.37;;
80936;SDS011;70395;51.382;7.074;2024-03-17T10:17:44;4.57;;;3.77;;
80936;SDS011;70395;51.382;7.074;2024-03-17T10:20:11;3.70;;;3.40;;
80936;SDS011;70395;51.382;7.074;2024-03-17T10:25:34;5.13;;;4.17;;
80936;SDS011;70395;51.382;7.074;2024-03-17T10:28:09;4.10;;;3.80;;
80936;SDS011;70395;51.382;7.074;2024-03-17T10:30:37;4.73;;;3.30;;
80936;SDS011;70395;51.382;7.074;2024-03-17T10:33:05;4.27;;;3.80;;
80936;SDS011;70395;51.382;7.074;2024-03-17T10:35:37;8.40;;;3.93;;
80936;SDS011;70395;51.382;7.074;2024-03-17T10:38:04;4.57;;;3.93;;
80936;SDS011;70395;51.382;7.074;2024-03-17T10:40:32;5.33;;;4.43;;
80936;SDS011;70395;51.382;7.074;2024-03-17T10:43:01;6.03;;;4.67;;
80936;SDS011;70395;51.382;7.074;2024-03-17T10:45:28;6.60;;;4.43;;
80936;SDS011;70395;51.382;7.074;2024-03-17T10:48:01;4.93;;;4.30;;
80936;SDS011;70395;51.382;7.074;2024-03-17T10:50:30;6.20;;;4.17;;
80936;SDS011;70395;51.382;7.074;2024-03-17T10:53:01;4.40;;;4.00;;
80936;SDS011;70395;51.382;7.074;2024-03-17T10:55:32;4.13;;;3.27;;
80936;SDS011;70395;51.382;7.074;2024-03-17T10:58:18;4.00;;;3.60;;
80936;SDS011;70395;51.382;7.074;2024-03-17T11:01:14;4.97;;;4.10;;
80936;SDS011;70395;51.382;7.074;2024-03-17T11:03:41;4.20;;;3.80;;
80936;SDS011;70395;51.382;7.074;2024-03-17T11:06:09;4.87;;;3.60;;
80936;SDS011;70395;51.382;7.074;2024-03-17T11:08:35;4.47;;;3.50;;
80936;SDS011;70395;51.382;7.074;2024-03-17T11:11:03;4.83;;;4.20;;
80936;SDS011;70395;51.382;7.074;2024-03-17T11:13:29;4.87;;;4.37;;
80936;SDS011;70395;51.382;7.074;2024-03-17T11:15:57;5.40;;;4.40;;
80936;SDS011;70395;51.382;7.074;2024-03-17T11:23:57;5.60;;;4.13;;
80936;SDS011;70395;51.382;7.074;2024-03-17T11:26:29;6.30;;;4.30;;
80936;SDS011;70395;51.382;7.074;2024-03-17T11:28:58;5.57;;;4.33;;
80936;SDS011;70395;51.382;7.074;2024-03-17T11:34:02;5.87;;;4.27;;
80936;SDS011;70395;51.382;7.074;2024-03-17T11:36:32;4.27;;;3.87;;
80936;SDS011;70395;51.382;7.074;2024-03-17T11:39:08;6.60;;;4.87;;
80936;SDS011;70395;51.382;7.074;2024-03-17T11:41:55;5.60;;;4.70;;
80936;SDS011;70395;51.382;7.074;2024-03-17T11:44:35;5.30;;;4.63;;
80936;SDS011;70395;51.382;7.074;2024-03-17T11:47:05;5.30;;;4.53;;
80936;SDS011;70395;51.382;7.074;2024-03-17T11:49:36;4.33;;;3.80;;
80936;SDS011;70395;51.382;7.074;2024-03-17T11:52:16;4.80;;;4.40;;
80936;SDS011;70395;51.382;7.074;2024-03-17T11:54:45;5.40;;;4.50;;
80936;SDS011;70395;51.382;7.074;2024-03-17T11:57:20;5.23;;;4.40;;
80936;SDS011;70395;51.382;7.074;2024-03-17T11:59:48;4.33;;;3.93;;
80936;SDS011;70395;51.382;7.074;2024-03-17T12:02:22;4.70;;;4.30;;
80936;SDS011;70395;51.382;7.074;2024-03-17T12:04:53;5.13;;;4.67;;
80936;SDS011;70395;51.382;7.074;2024-03-17T12:07:23;5.17;;;3.90;;
80936;SDS011;70395;51.382;7.074;2024-03-17T12:09:50;4.83;;;4.23;;
80936;SDS011;70395;51.382;7.074;2024-03-17T12:12:19;4.97;;;4.47;;
80936;SDS011;70395;51.382;7.074;2024-03-17T12:14:49;6.70;;;4.37;;
80936;SDS011;70395;51.382;7.074;2024-03-17T12:17:25;7.43;;;4.30;;
80936;SDS011;70395;51.382;7.074;2024-03-17T12:19:51;5.20;;;4.33;;
80936;SDS011;70395;51.382;7.074;2024-03-17T12:22:18;5.77;;;4.17;;
80936;SDS011;70395;51.382;7.074;2024-03-17T12:24:52;6.03;;;4.23;;
80936;SDS011;70395;51.382;7.074;2024-03-17T12:27:21;4.13;;;3.40;;
80936;SDS011;70395;51.382;7.074;2024-03-17T12:29:49;6.03;;;3.70;;
80936;SDS011;70395;51.382;7.074;2024-03-17T12:32:21;4.23;;;3.83;;
80936;SDS011;70395;51.382;7.074;2024-03-17T12:34:52;6.30;;;4.53;;
80936;SDS011;70395;51.382;7.074;2024-03-17T12:37:20;6.50;;;4.00;;
80936;SDS011;70395;51.382;7.074;2024-03-17T12:39:47;6.70;;;3.70;;
80936;SDS011;70395;51.382;7.074;2024-03-17T12:44:52;4.83;;;3.83;;
80936;SDS011;70395;51.382;7.074;2024-03-17T12:49:48;5.80;;;3.70;;
80936;SDS011;70395;51.382;7.074;2024-03-17T12:57:46;4.63;;;3.60;;
80936;SDS011;70395;51.382;7.074;2024-03-17T13:00:57;4.90;;;3.87;;
80936;SDS011;70395;51.382;7.074;2024-03-17T13:03:27;3.50;;;3.00;;
80936;SDS011;70395;51.382;7.074;2024-03-17T13:05:59;3.87;;;3.47;;
80936;SDS011;70395;51.382;7.074;2024-03-17T13:08:31;3.80;;;3.40;;
80936;SDS011;70395;51.382;7.074;2024-03-17T13:11:00;5.07;;;3.90;;
80936;SDS011;70395;51.382;7.074;2024-03-17T13:13:28;4.50;;;4.10;;
80936;SDS011;70395;51.382;7.074;2024-03-17T13:15:55;3.93;;;3.53;;
80936;SDS011;70395;51.382;7.074;2024-03-17T13:18:21;5.97;;;3.67;;
80936;SDS011;70395;51.382;7.074;2024-03-17T13:20:47;6.17;;;3.57;;
80936;SDS011;70395;51.382;7.074;2024-03-17T13:23:19;6.53;;;2.93;;
80936;SDS011;70395;51.382;7.074;2024-03-17T13:25:49;3.40;;;2.80;;
80936;SDS011;70395;51.382;7.074;2024-03-17T13:28:16;3.60;;;2.80;;
80936;SDS011;70395;51.382;7.074;2024-03-17T13:30:41;4.03;;;3.20;;
80936;SDS011;70395;51.382;7.074;2024-03-17T13:33:08;3.80;;;3.13;;
80936;SDS011;70395;51.382;7.074;2024-03-17T13:35:37;4.00;;;3.60;;
80936;SDS011;70395;51.382;7.074;2024-03-17T13:38:05;5.50;;;3.40;;
80936;SDS011;70395;51.382;7.074;2024-03-17T13:40:36;4.33;;;3.33;;
80936;SDS011;70395;51.382;7.074;2024-03-17T13:43:04;3.53;;;3.00;;
80936;SDS011;70395;51.382;7.074;2024-03-17T13:45:37;3.63;;;3.07;;
80936;SDS011;70395;51.382;7.074;2024-03-17T13:48:12;6.07;;;3.00;;
80936;SDS011;70395;51.382;7.074;2024-03-17T13:50:38;4.03;;;2.70;;
80936;SDS011;70395;51.382;7.074;2024-03-17T13:53:09;7.10;;;2.83;;
80936;SDS011;70395;51.382;7.074;2024-03-17T13:55:37;4.00;;;2.67;;
80936;SDS011;70395;51.382;7.074;2024-03-17T13:58:03;3.60;;;2.77;;
80936;SDS011;70395;51.382;7.074;2024-03-17T14:00:30;2.83;;;2.30;;
80936;SDS011;70395;51.382;7.074;2024-03-17T14:02:59;4.07;;;2.90;;
80936;SDS011;70395;51.382;7.074;2024-03-17T14:05:25;5.20;;;2.93;;
80936;SDS011;70395;51.382;7.074;2024-03-17T14:07:52;4.93;;;3.43;;
80936;SDS011;70395;51.382;7.074;2024-03-17T14:10:21;4.57;;;2.90;;
80936;SDS011;70395;51.382;7.074;2024-03-17T14:12:49;3.00;;;2.70;;
80936;SDS011;70395;51.382;7.074;2024-03-17T14:15:15;3.70;;;3.10;;
80936;SDS011;70395;51.382;7.074;2024-03-17T14:17:42;3.93;;;3.00;;
80936;SDS011;70395;51.382;7.074;2024-03-17T14:20:10;5.13;;;3.60;;
80936;SDS011;70395;51.382;7.074;2024-03-17T14:22:42;3.40;;;2.80;;
80936;SDS011;70395;51.382;7.074;2024-03-17T14:25:09;3.13;;;2.73;;
80936;SDS011;70395;51.382;7.074;2024-03-17T14:27:40;4.00;;;3.27;;
80936;SDS011;70395;51.382;7.074;2024-03-17T14:30:07;3.80;;;2.50;;
80936;SDS011;70395;51.382;7.074;2024-03-17T14:32:35;3.43;;;3.13;;
80936;SDS011;70395;51.382;7.074;2024-03-17T14:35:01;6.20;;;3.37;;
80936;SDS011;70395;51.382;7.074;2024-03-17T14:37:27;3.83;;;3.20;;
80936;SDS011;70395;51.382;7.074;2024-03-17T14:39:52;5.13;;;3.83;;
80936;SDS011;70395;51.382;7.074;2024-03-17T14:42:19;4.57;;;3.43;;
80936;SDS011;70395;51.382;7.074;2024-03-17T14:44:46;5.10;;;3.17;;
80936;SDS011;70395;51.382;7.074;2024-03-17T14:47:15;3.03;;;2.27;;
80936;SDS011;70395;51.382;7.074;2024-03-17T14:49:41;3.10;;;2.80;;
80936;SDS011;70395;51.382;7.074;2024-03-17T14:52:07;3.10;;;2.53;;
80936;SDS011;70395;51.382;7.074;2024-03-17T14:54:34;4.60;;;2.97;;
80936;SDS011;70395;51.382;7.074;2024-03-17T14:57:00;3.63;;;2.90;;
80936;SDS011;70395;51.382;7.074;2024-03-17T14:59:26;3.70;;;3.33;;
80936;SDS011;70395;51.382;7.074;2024-03-17T15:01:52;4.90;;;2.93;;
80936;SDS011;70395;51.382;7.074;2024-03-17T15:04:18;3.80;;;3.23;;
80936;SDS011;70395;51.382;7.074;2024-03-17T15:06:44;5.27;;;4.40;;
80936;SDS011;70395;51.382;7.074;2024-03-17T15:09:10;3.70;;;2.80;;
80936;SDS011;70395;51.382;7.074;2024-03-17T15:11:44;3.67;;;3.00;;
80936;SDS011;70395;51.382;7.074;2024-03-17T15:14:13;3.13;;;2.60;;
80936;SDS011;70395;51.382;7.074;2024-03-17T15:16:39;3.50;;;2.00;;